アリススプリングス の空港の天気 - METARとTAF

アリス・スプリングス空港 ( YBAS / ASP ) - オーストラリア ノーザンテリトリーアリススプリングス
飛行場実況気象(Metar)
観測時間10/21 02:00 ACST (10/20 16:30 UTC)
風向・風速東南東 2m/s
視程10km以上
天気現象
なし
気温15℃
湿度29%
気圧1018hPa
METARYBAS 201630Z AUTO 11004KT 9999 // NCD 15/M03 Q1018 RF00.0/000.0 PRESENT WEATHER SENSOR US
過去の天気等 Google飛行場航空写真 Wunderground天気予報

過去48時間のMETAR

飛行場予報(TAF)
発表時間: 10/20 20:43 ACST (10/20 11:13 UTC)
予報対象時間: 20日21時 ACST ~ 21日21時 ACST
風向・風速東南東 3m/s
視程10km以上
なし
21日9時 ACST から
風向・風速東南東 5m/s
視程10km以上
なし
TAF YBAS 201113Z 2012/2112 11005KT CAVOK
FM210000 12010KT CAVOK